sensor_id;sensor_type;location;lat;lon;timestamp;P1;durP1;ratioP1;P2;durP2;ratioP2
20122;SDS011;10222;50.848;4.336;2023-07-13T00:02:10;5.30;;;1.00;;
20122;SDS011;10222;50.848;4.336;2023-07-13T00:04:36;5.27;;;1.00;;
20122;SDS011;10222;50.848;4.336;2023-07-13T00:07:02;4.67;;;1.40;;
20122;SDS011;10222;50.848;4.336;2023-07-13T00:09:28;4.63;;;1.20;;
20122;SDS011;10222;50.848;4.336;2023-07-13T00:11:56;2.47;;;1.17;;
20122;SDS011;10222;50.848;4.336;2023-07-13T00:14:23;3.40;;;1.37;;
20122;SDS011;10222;50.848;4.336;2023-07-13T00:16:49;4.93;;;1.13;;
20122;SDS011;10222;50.848;4.336;2023-07-13T00:19:15;4.20;;;1.50;;
20122;SDS011;10222;50.848;4.336;2023-07-13T00:21:41;4.50;;;1.10;;
20122;SDS011;10222;50.848;4.336;2023-07-13T00:24:08;4.00;;;1.00;;
20122;SDS011;10222;50.848;4.336;2023-07-13T00:26:38;3.70;;;1.43;;
20122;SDS011;10222;50.848;4.336;2023-07-13T00:29:04;9.07;;;1.23;;
20122;SDS011;10222;50.848;4.336;2023-07-13T00:31:34;3.27;;;1.10;;
20122;SDS011;10222;50.848;4.336;2023-07-13T00:34:01;3.80;;;1.23;;
20122;SDS011;10222;50.848;4.336;2023-07-13T00:36:27;4.13;;;0.97;;
20122;SDS011;10222;50.848;4.336;2023-07-13T00:38:53;4.57;;;1.43;;
20122;SDS011;10222;50.848;4.336;2023-07-13T00:41:19;3.20;;;1.10;;
20122;SDS011;10222;50.848;4.336;2023-07-13T00:43:45;3.13;;;0.83;;
20122;SDS011;10222;50.848;4.336;2023-07-13T00:46:13;3.93;;;0.80;;
20122;SDS011;10222;50.848;4.336;2023-07-13T00:48:39;4.03;;;1.37;;
20122;SDS011;10222;50.848;4.336;2023-07-13T00:51:05;3.60;;;1.07;;
20122;SDS011;10222;50.848;4.336;2023-07-13T00:53:32;4.40;;;1.00;;
20122;SDS011;10222;50.848;4.336;2023-07-13T00:55:58;3.80;;;1.13;;
20122;SDS011;10222;50.848;4.336;2023-07-13T00:58:25;2.53;;;1.10;;
20122;SDS011;10222;50.848;4.336;2023-07-13T01:00:52;3.47;;;1.17;;
20122;SDS011;10222;50.848;4.336;2023-07-13T01:03:18;3.77;;;1.20;;
20122;SDS011;10222;50.848;4.336;2023-07-13T01:05:44;3.57;;;1.13;;
20122;SDS011;10222;50.848;4.336;2023-07-13T01:08:12;10.47;;;1.10;;
20122;SDS011;10222;50.848;4.336;2023-07-13T01:10:38;2.67;;;0.53;;
20122;SDS011;10222;50.848;4.336;2023-07-13T01:13:09;5.10;;;1.07;;
20122;SDS011;10222;50.848;4.336;2023-07-13T01:15:46;2.80;;;0.90;;
20122;SDS011;10222;50.848;4.336;2023-07-13T01:18:17;8.00;;;1.47;;
20122;SDS011;10222;50.848;4.336;2023-07-13T01:20:50;4.13;;;1.00;;
20122;SDS011;10222;50.848;4.336;2023-07-13T01:23:16;5.37;;;1.30;;
20122;SDS011;10222;50.848;4.336;2023-07-13T01:25:42;7.07;;;1.23;;
20122;SDS011;10222;50.848;4.336;2023-07-13T01:28:08;3.50;;;1.10;;
20122;SDS011;10222;50.848;4.336;2023-07-13T01:30:35;3.20;;;1.00;;
20122;SDS011;10222;50.848;4.336;2023-07-13T01:33:03;2.97;;;0.90;;
20122;SDS011;10222;50.848;4.336;2023-07-13T01:35:29;5.70;;;1.50;;
20122;SDS011;10222;50.848;4.336;2023-07-13T01:37:55;4.73;;;1.30;;
20122;SDS011;10222;50.848;4.336;2023-07-13T01:40:22;3.80;;;1.20;;
20122;SDS011;10222;50.848;4.336;2023-07-13T01:42:48;4.03;;;1.30;;
20122;SDS011;10222;50.848;4.336;2023-07-13T01:45:14;7.43;;;1.20;;
20122;SDS011;10222;50.848;4.336;2023-07-13T01:47:40;4.13;;;1.47;;
20122;SDS011;10222;50.848;4.336;2023-07-13T01:50:06;1.90;;;0.97;;
20122;SDS011;10222;50.848;4.336;2023-07-13T01:52:32;4.30;;;1.10;;
20122;SDS011;10222;50.848;4.336;2023-07-13T01:54:58;5.07;;;1.10;;
20122;SDS011;10222;50.848;4.336;2023-07-13T01:57:24;6.00;;;1.50;;
20122;SDS011;10222;50.848;4.336;2023-07-13T01:59:50;3.23;;;1.30;;
20122;SDS011;10222;50.848;4.336;2023-07-13T02:02:16;2.20;;;1.00;;
20122;SDS011;10222;50.848;4.336;2023-07-13T02:04:42;2.27;;;1.00;;
20122;SDS011;10222;50.848;4.336;2023-07-13T02:07:08;5.50;;;1.47;;
20122;SDS011;10222;50.848;4.336;2023-07-13T02:09:34;2.50;;;1.20;;
20122;SDS011;10222;50.848;4.336;2023-07-13T02:12:00;5.47;;;1.60;;
20122;SDS011;10222;50.848;4.336;2023-07-13T02:14:26;6.40;;;1.20;;
20122;SDS011;10222;50.848;4.336;2023-07-13T02:16:52;3.40;;;0.97;;
20122;SDS011;10222;50.848;4.336;2023-07-13T02:19:18;8.50;;;1.03;;
20122;SDS011;10222;50.848;4.336;2023-07-13T02:21:44;3.27;;;1.10;;
20122;SDS011;10222;50.848;4.336;2023-07-13T02:24:10;4.30;;;1.60;;
20122;SDS011;10222;50.848;4.336;2023-07-13T02:26:42;5.30;;;1.17;;
20122;SDS011;10222;50.848;4.336;2023-07-13T02:29:08;3.60;;;1.20;;
20122;SDS011;10222;50.848;4.336;2023-07-13T02:31:34;6.03;;;1.30;;
20122;SDS011;10222;50.848;4.336;2023-07-13T02:34:01;4.40;;;1.23;;
20122;SDS011;10222;50.848;4.336;2023-07-13T02:36:27;5.30;;;1.90;;
20122;SDS011;10222;50.848;4.336;2023-07-13T02:38:54;3.07;;;1.67;;
20122;SDS011;10222;50.848;4.336;2023-07-13T02:41:20;3.30;;;1.20;;
20122;SDS011;10222;50.848;4.336;2023-07-13T02:43:46;6.97;;;1.67;;
20122;SDS011;10222;50.848;4.336;2023-07-13T02:46:12;6.37;;;1.33;;
20122;SDS011;10222;50.848;4.336;2023-07-13T02:48:38;3.77;;;1.30;;
20122;SDS011;10222;50.848;4.336;2023-07-13T02:51:04;7.17;;;1.50;;
20122;SDS011;10222;50.848;4.336;2023-07-13T02:53:30;4.30;;;1.50;;
20122;SDS011;10222;50.848;4.336;2023-07-13T02:55:56;8.07;;;1.80;;
20122;SDS011;10222;50.848;4.336;2023-07-13T02:58:23;7.63;;;1.70;;
20122;SDS011;10222;50.848;4.336;2023-07-13T03:00:49;8.37;;;1.60;;
20122;SDS011;10222;50.848;4.336;2023-07-13T03:03:15;3.40;;;1.43;;
20122;SDS011;10222;50.848;4.336;2023-07-13T03:05:42;4.00;;;1.50;;
20122;SDS011;10222;50.848;4.336;2023-07-13T03:08:11;2.83;;;1.60;;
20122;SDS011;10222;50.848;4.336;2023-07-13T03:10:37;5.43;;;1.40;;
20122;SDS011;10222;50.848;4.336;2023-07-13T03:13:04;6.30;;;1.30;;
20122;SDS011;10222;50.848;4.336;2023-07-13T03:15:30;2.93;;;1.00;;
20122;SDS011;10222;50.848;4.336;2023-07-13T03:17:56;5.77;;;1.20;;
20122;SDS011;10222;50.848;4.336;2023-07-13T03:20:22;4.70;;;1.17;;
20122;SDS011;10222;50.848;4.336;2023-07-13T03:22:48;6.20;;;2.07;;
20122;SDS011;10222;50.848;4.336;2023-07-13T03:25:14;3.80;;;1.47;;
20122;SDS011;10222;50.848;4.336;2023-07-13T03:27:41;4.90;;;1.27;;
20122;SDS011;10222;50.848;4.336;2023-07-13T03:30:07;2.47;;;1.30;;
20122;SDS011;10222;50.848;4.336;2023-07-13T03:32:34;3.90;;;1.10;;
20122;SDS011;10222;50.848;4.336;2023-07-13T03:35:00;6.20;;;1.83;;
20122;SDS011;10222;50.848;4.336;2023-07-13T03:37:26;5.97;;;1.47;;
20122;SDS011;10222;50.848;4.336;2023-07-13T03:39:52;7.10;;;1.70;;
20122;SDS011;10222;50.848;4.336;2023-07-13T03:42:18;5.77;;;1.30;;
20122;SDS011;10222;50.848;4.336;2023-07-13T03:44:44;2.03;;;1.57;;
20122;SDS011;10222;50.848;4.336;2023-07-13T03:47:17;6.40;;;1.27;;
20122;SDS011;10222;50.848;4.336;2023-07-13T03:49:43;3.27;;;1.50;;
20122;SDS011;10222;50.848;4.336;2023-07-13T03:52:09;5.20;;;1.37;;
20122;SDS011;10222;50.848;4.336;2023-07-13T03:54:34;6.43;;;1.73;;
20122;SDS011;10222;50.848;4.336;2023-07-13T03:57:00;5.90;;;1.63;;
20122;SDS011;10222;50.848;4.336;2023-07-13T03:59:26;5.30;;;1.40;;
20122;SDS011;10222;50.848;4.336;2023-07-13T04:01:52;3.60;;;1.30;;
20122;SDS011;10222;50.848;4.336;2023-07-13T04:04:20;5.90;;;1.50;;
20122;SDS011;10222;50.848;4.336;2023-07-13T04:06:46;2.97;;;1.77;;
20122;SDS011;10222;50.848;4.336;2023-07-13T04:09:12;6.67;;;1.40;;
20122;SDS011;10222;50.848;4.336;2023-07-13T04:11:38;4.73;;;1.20;;
20122;SDS011;10222;50.848;4.336;2023-07-13T04:14:04;3.90;;;1.70;;
20122;SDS011;10222;50.848;4.336;2023-07-13T04:16:30;7.63;;;2.50;;
20122;SDS011;10222;50.848;4.336;2023-07-13T04:18:56;7.27;;;2.13;;
20122;SDS011;10222;50.848;4.336;2023-07-13T04:21:25;4.23;;;1.40;;
20122;SDS011;10222;50.848;4.336;2023-07-13T04:23:51;6.37;;;1.27;;
20122;SDS011;10222;50.848;4.336;2023-07-13T04:26:17;3.57;;;1.57;;
20122;SDS011;10222;50.848;4.336;2023-07-13T04:28:46;6.27;;;2.13;;
20122;SDS011;10222;50.848;4.336;2023-07-13T04:31:12;4.03;;;1.40;;
20122;SDS011;10222;50.848;4.336;2023-07-13T04:33:37;5.43;;;1.57;;
20122;SDS011;10222;50.848;4.336;2023-07-13T04:36:04;8.30;;;1.73;;
20122;SDS011;10222;50.848;4.336;2023-07-13T04:38:30;3.93;;;1.97;;
20122;SDS011;10222;50.848;4.336;2023-07-13T04:40:58;3.97;;;1.50;;
20122;SDS011;10222;50.848;4.336;2023-07-13T04:43:24;4.03;;;1.63;;
20122;SDS011;10222;50.848;4.336;2023-07-13T04:45:51;9.07;;;2.10;;
20122;SDS011;10222;50.848;4.336;2023-07-13T04:48:17;18.47;;;2.30;;
20122;SDS011;10222;50.848;4.336;2023-07-13T04:50:43;7.30;;;2.00;;
20122;SDS011;10222;50.848;4.336;2023-07-13T04:53:09;6.03;;;1.63;;
20122;SDS011;10222;50.848;4.336;2023-07-13T04:55:35;4.37;;;1.30;;
20122;SDS011;10222;50.848;4.336;2023-07-13T04:58:02;4.07;;;1.50;;
20122;SDS011;10222;50.848;4.336;2023-07-13T05:00:28;5.07;;;1.57;;
20122;SDS011;10222;50.848;4.336;2023-07-13T05:02:55;7.33;;;1.77;;
20122;SDS011;10222;50.848;4.336;2023-07-13T05:05:22;7.13;;;2.17;;
20122;SDS011;10222;50.848;4.336;2023-07-13T05:07:48;7.07;;;1.63;;
20122;SDS011;10222;50.848;4.336;2023-07-13T05:10:14;5.53;;;1.43;;
20122;SDS011;10222;50.848;4.336;2023-07-13T05:12:40;6.40;;;2.00;;
20122;SDS011;10222;50.848;4.336;2023-07-13T05:15:06;3.77;;;1.50;;
20122;SDS011;10222;50.848;4.336;2023-07-13T05:17:34;6.93;;;1.90;;
20122;SDS011;10222;50.848;4.336;2023-07-13T05:20:00;7.73;;;1.80;;
20122;SDS011;10222;50.848;4.336;2023-07-13T05:22:26;9.07;;;1.97;;
20122;SDS011;10222;50.848;4.336;2023-07-13T05:24:52;7.53;;;1.57;;
20122;SDS011;10222;50.848;4.336;2023-07-13T05:27:18;4.27;;;1.20;;
20122;SDS011;10222;50.848;4.336;2023-07-13T05:29:43;5.03;;;1.70;;
20122;SDS011;10222;50.848;4.336;2023-07-13T05:32:09;5.20;;;1.67;;
20122;SDS011;10222;50.848;4.336;2023-07-13T05:34:36;5.13;;;2.03;;
20122;SDS011;10222;50.848;4.336;2023-07-13T05:37:01;11.37;;;2.17;;
20122;SDS011;10222;50.848;4.336;2023-07-13T05:39:28;4.23;;;1.53;;
20122;SDS011;10222;50.848;4.336;2023-07-13T05:41:54;5.03;;;1.53;;
20122;SDS011;10222;50.848;4.336;2023-07-13T05:44:20;3.03;;;1.20;;
20122;SDS011;10222;50.848;4.336;2023-07-13T05:46:46;7.73;;;1.57;;
20122;SDS011;10222;50.848;4.336;2023-07-13T05:49:12;4.93;;;1.63;;
20122;SDS011;10222;50.848;4.336;2023-07-13T05:51:38;5.70;;;1.30;;
20122;SDS011;10222;50.848;4.336;2023-07-13T05:54:04;5.20;;;1.77;;
20122;SDS011;10222;50.848;4.336;2023-07-13T05:56:30;4.13;;;2.07;;
20122;SDS011;10222;50.848;4.336;2023-07-13T05:58:56;8.23;;;1.83;;
20122;SDS011;10222;50.848;4.336;2023-07-13T06:01:22;4.40;;;1.97;;
20122;SDS011;10222;50.848;4.336;2023-07-13T06:03:48;5.17;;;1.77;;
20122;SDS011;10222;50.848;4.336;2023-07-13T06:06:15;6.03;;;1.60;;
20122;SDS011;10222;50.848;4.336;2023-07-13T06:08:41;4.97;;;1.80;;
20122;SDS011;10222;50.848;4.336;2023-07-13T06:11:09;4.10;;;1.73;;
20122;SDS011;10222;50.848;4.336;2023-07-13T06:13:37;2.77;;;1.50;;
20122;SDS011;10222;50.848;4.336;2023-07-13T06:16:03;6.80;;;1.70;;
20122;SDS011;10222;50.848;4.336;2023-07-13T06:18:30;9.67;;;1.87;;
20122;SDS011;10222;50.848;4.336;2023-07-13T06:20:56;10.47;;;1.67;;
20122;SDS011;10222;50.848;4.336;2023-07-13T06:23:22;9.73;;;1.67;;
20122;SDS011;10222;50.848;4.336;2023-07-13T06:25:48;4.13;;;1.40;;
20122;SDS011;10222;50.848;4.336;2023-07-13T06:28:14;7.93;;;1.87;;
20122;SDS011;10222;50.848;4.336;2023-07-13T06:30:40;4.17;;;1.70;;
20122;SDS011;10222;50.848;4.336;2023-07-13T06:33:06;3.63;;;1.57;;
20122;SDS011;10222;50.848;4.336;2023-07-13T06:35:32;6.07;;;1.90;;
20122;SDS011;10222;50.848;4.336;2023-07-13T06:37:58;5.27;;;1.57;;
20122;SDS011;10222;50.848;4.336;2023-07-13T06:40:24;9.50;;;2.27;;
20122;SDS011;10222;50.848;4.336;2023-07-13T06:42:50;11.47;;;2.20;;
20122;SDS011;10222;50.848;4.336;2023-07-13T06:45:16;3.67;;;1.53;;
20122;SDS011;10222;50.848;4.336;2023-07-13T06:47:42;8.60;;;2.10;;
20122;SDS011;10222;50.848;4.336;2023-07-13T06:50:08;8.67;;;1.90;;
20122;SDS011;10222;50.848;4.336;2023-07-13T06:52:34;6.70;;;2.13;;
20122;SDS011;10222;50.848;4.336;2023-07-13T06:55:00;5.80;;;1.57;;
20122;SDS011;10222;50.848;4.336;2023-07-13T06:57:26;4.90;;;1.53;;
20122;SDS011;10222;50.848;4.336;2023-07-13T06:59:52;7.63;;;1.93;;
20122;SDS011;10222;50.848;4.336;2023-07-13T07:02:18;4.57;;;1.53;;
20122;SDS011;10222;50.848;4.336;2023-07-13T07:04:45;3.50;;;2.03;;
20122;SDS011;10222;50.848;4.336;2023-07-13T07:07:10;5.37;;;2.33;;
20122;SDS011;10222;50.848;4.336;2023-07-13T07:09:36;6.27;;;1.40;;
20122;SDS011;10222;50.848;4.336;2023-07-13T07:12:04;6.63;;;1.77;;
20122;SDS011;10222;50.848;4.336;2023-07-13T07:14:30;11.33;;;2.20;;
20122;SDS011;10222;50.848;4.336;2023-07-13T07:16:56;6.83;;;1.97;;
20122;SDS011;10222;50.848;4.336;2023-07-13T07:19:23;3.93;;;1.67;;
20122;SDS011;10222;50.848;4.336;2023-07-13T07:21:49;10.23;;;2.83;;
20122;SDS011;10222;50.848;4.336;2023-07-13T07:24:16;7.70;;;1.97;;
20122;SDS011;10222;50.848;4.336;2023-07-13T07:26:42;6.93;;;1.80;;
20122;SDS011;10222;50.848;4.336;2023-07-13T07:29:08;9.50;;;2.20;;
20122;SDS011;10222;50.848;4.336;2023-07-13T07:31:34;5.63;;;1.80;;
20122;SDS011;10222;50.848;4.336;2023-07-13T07:34:02;7.50;;;2.07;;
20122;SDS011;10222;50.848;4.336;2023-07-13T07:36:28;8.07;;;2.20;;
20122;SDS011;10222;50.848;4.336;2023-07-13T07:38:54;7.23;;;1.73;;
20122;SDS011;10222;50.848;4.336;2023-07-13T07:41:21;6.37;;;1.97;;
20122;SDS011;10222;50.848;4.336;2023-07-13T07:43:47;5.30;;;1.63;;
20122;SDS011;10222;50.848;4.336;2023-07-13T07:46:13;4.43;;;1.77;;
20122;SDS011;10222;50.848;4.336;2023-07-13T07:48:39;6.03;;;1.83;;
20122;SDS011;10222;50.848;4.336;2023-07-13T07:51:05;8.27;;;2.40;;
20122;SDS011;10222;50.848;4.336;2023-07-13T07:53:30;5.50;;;1.70;;
20122;SDS011;10222;50.848;4.336;2023-07-13T07:55:56;5.73;;;1.97;;
20122;SDS011;10222;50.848;4.336;2023-07-13T07:58:23;4.17;;;1.90;;
20122;SDS011;10222;50.848;4.336;2023-07-13T08:00:49;10.07;;;1.83;;
20122;SDS011;10222;50.848;4.336;2023-07-13T08:03:15;4.50;;;1.77;;
20122;SDS011;10222;50.848;4.336;2023-07-13T08:05:41;4.60;;;1.77;;
20122;SDS011;10222;50.848;4.336;2023-07-13T08:08:07;10.03;;;1.77;;
20122;SDS011;10222;50.848;4.336;2023-07-13T08:10:35;4.67;;;1.60;;
20122;SDS011;10222;50.848;4.336;2023-07-13T08:13:02;5.17;;;2.17;;
20122;SDS011;10222;50.848;4.336;2023-07-13T08:15:28;5.17;;;2.20;;
20122;SDS011;10222;50.848;4.336;2023-07-13T08:17:54;5.97;;;1.87;;
20122;SDS011;10222;50.848;4.336;2023-07-13T08:20:20;4.23;;;1.50;;
20122;SDS011;10222;50.848;4.336;2023-07-13T08:22:46;5.43;;;1.53;;
20122;SDS011;10222;50.848;4.336;2023-07-13T08:25:13;6.87;;;1.90;;
20122;SDS011;10222;50.848;4.336;2023-07-13T08:27:39;6.57;;;1.83;;
20122;SDS011;10222;50.848;4.336;2023-07-13T08:30:05;2.67;;;1.30;;
20122;SDS011;10222;50.848;4.336;2023-07-13T08:32:33;4.07;;;1.50;;
20122;SDS011;10222;50.848;4.336;2023-07-13T08:34:59;4.83;;;2.37;;
20122;SDS011;10222;50.848;4.336;2023-07-13T08:37:25;5.70;;;1.73;;
20122;SDS011;10222;50.848;4.336;2023-07-13T08:39:51;8.23;;;1.47;;
20122;SDS011;10222;50.848;4.336;2023-07-13T08:44:53;4.83;;;1.60;;
20122;SDS011;10222;50.848;4.336;2023-07-13T08:47:21;4.57;;;1.57;;
20122;SDS011;10222;50.848;4.336;2023-07-13T08:49:48;6.93;;;1.97;;
20122;SDS011;10222;50.848;4.336;2023-07-13T08:52:24;7.47;;;1.73;;
20122;SDS011;10222;50.848;4.336;2023-07-13T08:54:52;4.93;;;1.33;;
20122;SDS011;10222;50.848;4.336;2023-07-13T08:57:21;10.93;;;1.97;;
20122;SDS011;10222;50.848;4.336;2023-07-13T08:59:47;3.60;;;1.80;;
20122;SDS011;10222;50.848;4.336;2023-07-13T09:07:16;4.80;;;1.63;;
20122;SDS011;10222;50.848;4.336;2023-07-13T09:12:51;5.07;;;1.73;;
20122;SDS011;10222;50.848;4.336;2023-07-13T09:15:31;4.80;;;1.63;;
20122;SDS011;10222;50.848;4.336;2023-07-13T09:18:01;5.87;;;1.83;;
20122;SDS011;10222;50.848;4.336;2023-07-13T09:22:54;7.83;;;2.07;;
20122;SDS011;10222;50.848;4.336;2023-07-13T09:25:24;4.20;;;1.58;;
20122;SDS011;10222;50.848;4.336;2023-07-13T09:27:50;3.67;;;1.50;;
20122;SDS011;10222;50.848;4.336;2023-07-13T09:30:20;4.77;;;1.47;;
20122;SDS011;10222;50.848;4.336;2023-07-13T09:32:50;5.47;;;1.80;;
20122;SDS011;10222;50.848;4.336;2023-07-13T09:35:18;2.93;;;1.50;;
20122;SDS011;10222;50.848;4.336;2023-07-13T09:37:45;6.43;;;1.50;;
20122;SDS011;10222;50.848;4.336;2023-07-13T09:40:13;4.32;;;1.48;;
20122;SDS011;10222;50.848;4.336;2023-07-13T09:42:42;6.23;;;2.03;;
20122;SDS011;10222;50.848;4.336;2023-07-13T09:45:08;4.20;;;1.50;;
20122;SDS011;10222;50.848;4.336;2023-07-13T09:47:39;4.07;;;1.60;;
20122;SDS011;10222;50.848;4.336;2023-07-13T09:50:15;4.83;;;1.40;;
20122;SDS011;10222;50.848;4.336;2023-07-13T09:52:45;4.63;;;1.63;;
20122;SDS011;10222;50.848;4.336;2023-07-13T09:55:35;2.70;;;1.17;;
20122;SDS011;10222;50.848;4.336;2023-07-13T09:58:41;4.78;;;1.40;;
20122;SDS011;10222;50.848;4.336;2023-07-13T10:00:59;4.30;;;1.30;;
20122;SDS011;10222;50.848;4.336;2023-07-13T10:03:29;8.07;;;1.50;;
20122;SDS011;10222;50.848;4.336;2023-07-13T10:06:01;6.17;;;1.30;;
20122;SDS011;10222;50.848;4.336;2023-07-13T10:08:30;2.92;;;0.95;;
20122;SDS011;10222;50.848;4.336;2023-07-13T10:11:01;5.85;;;1.65;;
20122;SDS011;10222;50.848;4.336;2023-07-13T10:13:32;4.30;;;1.40;;
20122;SDS011;10222;50.848;4.336;2023-07-13T10:15:59;5.38;;;1.08;;
20122;SDS011;10222;50.848;4.336;2023-07-13T10:18:26;2.95;;;1.20;;
20122;SDS011;10222;50.848;4.336;2023-07-13T10:21:00;6.22;;;1.15;;
20122;SDS011;10222;50.848;4.336;2023-07-13T10:23:35;4.72;;;1.45;;
20122;SDS011;10222;50.848;4.336;2023-07-13T10:26:01;4.35;;;1.40;;
20122;SDS011;10222;50.848;4.336;2023-07-13T10:28:29;3.33;;;0.85;;
20122;SDS011;10222;50.848;4.336;2023-07-13T10:30:56;3.53;;;1.17;;
20122;SDS011;10222;50.848;4.336;2023-07-13T10:33:23;1.95;;;1.02;;
20122;SDS011;10222;50.848;4.336;2023-07-13T10:35:49;4.40;;;1.60;;
20122;SDS011;10222;50.848;4.336;2023-07-13T10:38:18;3.13;;;1.52;;
20122;SDS011;10222;50.848;4.336;2023-07-13T10:43:34;4.93;;;1.88;;
20122;SDS011;10222;50.848;4.336;2023-07-13T10:46:04;1.45;;;1.20;;
20122;SDS011;10222;50.848;4.336;2023-07-13T10:48:31;2.40;;;1.30;;
20122;SDS011;10222;50.848;4.336;2023-07-13T10:50:59;3.83;;;1.45;;
20122;SDS011;10222;50.848;4.336;2023-07-13T10:55:59;5.30;;;1.20;;
20122;SDS011;10222;50.848;4.336;2023-07-13T11:03:32;3.65;;;1.13;;
20122;SDS011;10222;50.848;4.336;2023-07-13T11:06:16;4.05;;;1.15;;
20122;SDS011;10222;50.848;4.336;2023-07-13T11:13:57;3.72;;;1.30;;
20122;SDS011;10222;50.848;4.336;2023-07-13T11:18:50;3.72;;;0.90;;
20122;SDS011;10222;50.848;4.336;2023-07-13T11:21:18;3.15;;;1.10;;
20122;SDS011;10222;50.848;4.336;2023-07-13T11:23:51;2.63;;;0.85;;
20122;SDS011;10222;50.848;4.336;2023-07-13T11:29:07;2.25;;;0.80;;
20122;SDS011;10222;50.848;4.336;2023-07-13T11:31:34;6.20;;;1.48;;
20122;SDS011;10222;50.848;4.336;2023-07-13T11:34:00;4.13;;;1.00;;
20122;SDS011;10222;50.848;4.336;2023-07-13T11:36:30;2.33;;;1.00;;
20122;SDS011;10222;50.848;4.336;2023-07-13T11:41:59;3.72;;;1.10;;
20122;SDS011;10222;50.848;4.336;2023-07-13T11:44:29;4.25;;;1.10;;
20122;SDS011;10222;50.848;4.336;2023-07-13T11:46:56;5.65;;;1.27;;
20122;SDS011;10222;50.848;4.336;2023-07-13T11:49:25;2.80;;;1.13;;
20122;SDS011;10222;50.848;4.336;2023-07-13T11:51:52;4.75;;;1.08;;
20122;SDS011;10222;50.848;4.336;2023-07-13T11:56:55;2.92;;;1.13;;
20122;SDS011;10222;50.848;4.336;2023-07-13T11:59:25;2.55;;;0.98;;
20122;SDS011;10222;50.848;4.336;2023-07-13T12:01:52;3.10;;;1.07;;
20122;SDS011;10222;50.848;4.336;2023-07-13T12:04:20;2.72;;;1.20;;
20122;SDS011;10222;50.848;4.336;2023-07-13T12:06:47;2.25;;;1.10;;
20122;SDS011;10222;50.848;4.336;2023-07-13T12:09:18;6.20;;;1.92;;
20122;SDS011;10222;50.848;4.336;2023-07-13T12:11:50;2.50;;;1.00;;
20122;SDS011;10222;50.848;4.336;2023-07-13T12:14:16;5.28;;;1.10;;
20122;SDS011;10222;50.848;4.336;2023-07-13T12:16:43;2.72;;;1.10;;
20122;SDS011;10222;50.848;4.336;2023-07-13T12:19:30;4.78;;;1.10;;
20122;SDS011;10222;50.848;4.336;2023-07-13T12:21:56;3.50;;;1.10;;
20122;SDS011;10222;50.848;4.336;2023-07-13T12:24:23;3.67;;;0.90;;
20122;SDS011;10222;50.848;4.336;2023-07-13T12:26:59;2.97;;;1.00;;
20122;SDS011;10222;50.848;4.336;2023-07-13T12:29:26;3.03;;;1.17;;
20122;SDS011;10222;50.848;4.336;2023-07-13T12:31:52;3.97;;;1.03;;
20122;SDS011;10222;50.848;4.336;2023-07-13T12:34:20;2.13;;;0.97;;
20122;SDS011;10222;50.848;4.336;2023-07-13T12:39:18;2.27;;;1.00;;
20122;SDS011;10222;50.848;4.336;2023-07-13T12:41:45;4.33;;;1.43;;
20122;SDS011;10222;50.848;4.336;2023-07-13T12:44:12;2.27;;;1.37;;
20122;SDS011;10222;50.848;4.336;2023-07-13T12:46:38;2.00;;;1.30;;
20122;SDS011;10222;50.848;4.336;2023-07-13T12:49:06;2.50;;;1.40;;
20122;SDS011;10222;50.848;4.336;2023-07-13T12:51:33;1.90;;;1.40;;
20122;SDS011;10222;50.848;4.336;2023-07-13T12:54:13;2.80;;;1.37;;
20122;SDS011;10222;50.848;4.336;2023-07-13T12:56:42;4.87;;;1.50;;
20122;SDS011;10222;50.848;4.336;2023-07-13T12:59:11;2.60;;;1.30;;
20122;SDS011;10222;50.848;4.336;2023-07-13T13:01:41;4.87;;;1.70;;
20122;SDS011;10222;50.848;4.336;2023-07-13T13:04:08;5.07;;;1.37;;
20122;SDS011;10222;50.848;4.336;2023-07-13T13:06:36;4.17;;;1.50;;
20122;SDS011;10222;50.848;4.336;2023-07-13T13:09:03;2.57;;;1.37;;
20122;SDS011;10222;50.848;4.336;2023-07-13T13:11:30;1.63;;;1.50;;
20122;SDS011;10222;50.848;4.336;2023-07-13T13:13:57;3.47;;;1.40;;
20122;SDS011;10222;50.848;4.336;2023-07-13T13:16:31;2.33;;;1.43;;
20122;SDS011;10222;50.848;4.336;2023-07-13T13:18:59;1.97;;;1.30;;
20122;SDS011;10222;50.848;4.336;2023-07-13T13:21:25;3.60;;;1.83;;
20122;SDS011;10222;50.848;4.336;2023-07-13T13:23:51;3.27;;;1.57;;
20122;SDS011;10222;50.848;4.336;2023-07-13T13:26:18;3.37;;;1.50;;
20122;SDS011;10222;50.848;4.336;2023-07-13T13:28:44;4.10;;;1.40;;
20122;SDS011;10222;50.848;4.336;2023-07-13T13:31:12;3.23;;;1.60;;
20122;SDS011;10222;50.848;4.336;2023-07-13T13:33:39;2.83;;;1.60;;
20122;SDS011;10222;50.848;4.336;2023-07-13T13:36:17;2.93;;;1.37;;
20122;SDS011;10222;50.848;4.336;2023-07-13T13:38:44;1.57;;;1.10;;
20122;SDS011;10222;50.848;4.336;2023-07-13T13:41:10;3.30;;;1.47;;
20122;SDS011;10222;50.848;4.336;2023-07-13T13:43:38;2.63;;;1.30;;
20122;SDS011;10222;50.848;4.336;2023-07-13T13:46:08;2.75;;;1.00;;
20122;SDS011;10222;50.848;4.336;2023-07-13T13:48:37;4.57;;;0.90;;
20122;SDS011;10222;50.848;4.336;2023-07-13T13:51:06;3.37;;;1.20;;
20122;SDS011;10222;50.848;4.336;2023-07-13T13:53:37;1.67;;;1.00;;
20122;SDS011;10222;50.848;4.336;2023-07-13T13:56:05;3.20;;;1.10;;
20122;SDS011;10222;50.848;4.336;2023-07-13T13:58:31;3.25;;;1.20;;
20122;SDS011;10222;50.848;4.336;2023-07-13T14:00:57;4.18;;;1.13;;
20122;SDS011;10222;50.848;4.336;2023-07-13T14:03:23;3.17;;;1.00;;
20122;SDS011;10222;50.848;4.336;2023-07-13T14:05:49;3.78;;;1.52;;
20122;SDS011;10222;50.848;4.336;2023-07-13T14:08:16;1.45;;;0.88;;
20122;SDS011;10222;50.848;4.336;2023-07-13T14:10:42;1.58;;;0.95;;
20122;SDS011;10222;50.848;4.336;2023-07-13T14:13:15;3.28;;;1.52;;
20122;SDS011;10222;50.848;4.336;2023-07-13T14:15:42;4.75;;;1.48;;
20122;SDS011;10222;50.848;4.336;2023-07-13T14:18:08;3.78;;;1.15;;
20122;SDS011;10222;50.848;4.336;2023-07-13T14:20:34;5.03;;;0.95;;
20122;SDS011;10222;50.848;4.336;2023-07-13T14:23:00;2.50;;;1.05;;
20122;SDS011;10222;50.848;4.336;2023-07-13T14:25:26;3.83;;;0.95;;
20122;SDS011;10222;50.848;4.336;2023-07-13T14:27:56;2.10;;;0.80;;
20122;SDS011;10222;50.848;4.336;2023-07-13T14:30:24;2.50;;;0.93;;
20122;SDS011;10222;50.848;4.336;2023-07-13T14:32:50;2.13;;;0.90;;
20122;SDS011;10222;50.848;4.336;2023-07-13T14:35:18;2.33;;;0.90;;
20122;SDS011;10222;50.848;4.336;2023-07-13T14:37:45;3.55;;;1.00;;
20122;SDS011;10222;50.848;4.336;2023-07-13T14:42:38;1.90;;;0.77;;
20122;SDS011;10222;50.848;4.336;2023-07-13T14:45:04;2.40;;;0.80;;
20122;SDS011;10222;50.848;4.336;2023-07-13T14:47:31;3.22;;;1.05;;
20122;SDS011;10222;50.848;4.336;2023-07-13T14:49:57;2.65;;;1.02;;
20122;SDS011;10222;50.848;4.336;2023-07-13T14:52:23;4.40;;;1.30;;
20122;SDS011;10222;50.848;4.336;2023-07-13T14:54:50;2.55;;;0.90;;
20122;SDS011;10222;50.848;4.336;2023-07-13T14:57:16;2.38;;;0.93;;
20122;SDS011;10222;50.848;4.336;2023-07-13T14:59:43;2.03;;;0.93;;
20122;SDS011;10222;50.848;4.336;2023-07-13T15:04:55;4.00;;;1.60;;
20122;SDS011;10222;50.848;4.336;2023-07-13T15:07:21;3.13;;;1.30;;
20122;SDS011;10222;50.848;4.336;2023-07-13T15:09:48;1.50;;;1.23;;
20122;SDS011;10222;50.848;4.336;2023-07-13T15:12:15;3.88;;;1.20;;
20122;SDS011;10222;50.848;4.336;2023-07-13T15:14:41;1.52;;;0.95;;
20122;SDS011;10222;50.848;4.336;2023-07-13T15:17:27;2.47;;;1.20;;
20122;SDS011;10222;50.848;4.336;2023-07-13T15:19:53;0.93;;;0.70;;
20122;SDS011;10222;50.848;4.336;2023-07-13T15:22:21;1.42;;;0.82;;
20122;SDS011;10222;50.848;4.336;2023-07-13T15:24:47;3.05;;;1.00;;
20122;SDS011;10222;50.848;4.336;2023-07-13T15:27:13;3.05;;;0.77;;
20122;SDS011;10222;50.848;4.336;2023-07-13T15:29:40;1.52;;;0.73;;
20122;SDS011;10222;50.848;4.336;2023-07-13T15:32:16;1.10;;;0.75;;
20122;SDS011;10222;50.848;4.336;2023-07-13T15:34:44;0.95;;;0.68;;
20122;SDS011;10222;50.848;4.336;2023-07-13T15:37:14;1.90;;;0.90;;